sensor_id;sensor_type;location;lat;lon;timestamp;P1;durP1;ratioP1;P2;durP2;ratioP2
53269;SDS011;39159;45.634;9.420;2022-12-07T00:01:10;22.38;;;15.35;;
53269;SDS011;39159;45.634;9.420;2022-12-07T00:03:37;23.38;;;14.93;;
53269;SDS011;39159;45.634;9.420;2022-12-07T00:06:03;21.65;;;12.75;;
53269;SDS011;39159;45.634;9.420;2022-12-07T00:08:33;21.90;;;15.07;;
53269;SDS011;39159;45.634;9.420;2022-12-07T00:11:09;21.20;;;13.63;;
53269;SDS011;39159;45.634;9.420;2022-12-07T00:13:40;20.13;;;13.00;;
53269;SDS011;39159;45.634;9.420;2022-12-07T00:16:08;27.92;;;15.60;;
53269;SDS011;39159;45.634;9.420;2022-12-07T00:18:38;24.02;;;14.73;;
53269;SDS011;39159;45.634;9.420;2022-12-07T00:21:08;32.78;;;16.95;;
53269;SDS011;39159;45.634;9.420;2022-12-07T00:23:36;37.80;;;20.00;;
53269;SDS011;39159;45.634;9.420;2022-12-07T00:26:05;48.05;;;21.20;;
53269;SDS011;39159;45.634;9.420;2022-12-07T00:28:32;23.77;;;13.75;;
53269;SDS011;39159;45.634;9.420;2022-12-07T00:31:03;29.58;;;15.18;;
53269;SDS011;39159;45.634;9.420;2022-12-07T00:33:30;18.98;;;11.60;;
53269;SDS011;39159;45.634;9.420;2022-12-07T00:35:59;25.27;;;13.02;;
53269;SDS011;39159;45.634;9.420;2022-12-07T00:38:27;21.05;;;11.70;;
53269;SDS011;39159;45.634;9.420;2022-12-07T00:40:57;17.20;;;10.35;;
53269;SDS011;39159;45.634;9.420;2022-12-07T00:43:24;17.30;;;11.18;;
53269;SDS011;39159;45.634;9.420;2022-12-07T00:45:50;14.88;;;9.40;;
53269;SDS011;39159;45.634;9.420;2022-12-07T00:48:16;14.82;;;9.45;;
53269;SDS011;39159;45.634;9.420;2022-12-07T00:50:41;19.58;;;10.68;;
53269;SDS011;39159;45.634;9.420;2022-12-07T00:53:07;19.90;;;10.00;;
53269;SDS011;39159;45.634;9.420;2022-12-07T00:55:33;15.85;;;9.27;;
53269;SDS011;39159;45.634;9.420;2022-12-07T00:57:59;16.60;;;9.23;;
53269;SDS011;39159;45.634;9.420;2022-12-07T01:00:25;18.90;;;9.90;;
53269;SDS011;39159;45.634;9.420;2022-12-07T01:02:50;18.98;;;9.98;;
53269;SDS011;39159;45.634;9.420;2022-12-07T01:05:17;15.18;;;9.23;;
53269;SDS011;39159;45.634;9.420;2022-12-07T01:07:42;15.57;;;9.65;;
53269;SDS011;39159;45.634;9.420;2022-12-07T01:10:08;15.30;;;8.95;;
53269;SDS011;39159;45.634;9.420;2022-12-07T01:12:33;13.88;;;8.35;;
53269;SDS011;39159;45.634;9.420;2022-12-07T01:14:59;13.23;;;8.57;;
53269;SDS011;39159;45.634;9.420;2022-12-07T01:17:24;15.30;;;8.50;;
53269;SDS011;39159;45.634;9.420;2022-12-07T01:19:50;13.25;;;8.68;;
53269;SDS011;39159;45.634;9.420;2022-12-07T01:22:15;13.95;;;7.93;;
53269;SDS011;39159;45.634;9.420;2022-12-07T01:24:41;12.68;;;7.68;;
53269;SDS011;39159;45.634;9.420;2022-12-07T01:27:06;15.70;;;8.13;;
53269;SDS011;39159;45.634;9.420;2022-12-07T01:29:31;14.93;;;8.30;;
53269;SDS011;39159;45.634;9.420;2022-12-07T01:31:57;13.23;;;7.93;;
53269;SDS011;39159;45.634;9.420;2022-12-07T01:34:22;15.57;;;7.82;;
53269;SDS011;39159;45.634;9.420;2022-12-07T01:36:48;14.05;;;7.50;;
53269;SDS011;39159;45.634;9.420;2022-12-07T01:39:13;13.40;;;8.18;;
53269;SDS011;39159;45.634;9.420;2022-12-07T01:41:40;14.38;;;7.65;;
53269;SDS011;39159;45.634;9.420;2022-12-07T01:46:58;12.27;;;8.00;;
53269;SDS011;39159;45.634;9.420;2022-12-07T01:49:42;12.82;;;8.15;;
53269;SDS011;39159;45.634;9.420;2022-12-07T01:52:18;11.27;;;7.30;;
53269;SDS011;39159;45.634;9.420;2022-12-07T01:54:47;12.00;;;6.82;;
53269;SDS011;39159;45.634;9.420;2022-12-07T01:57:17;11.82;;;7.18;;
53269;SDS011;39159;45.634;9.420;2022-12-07T01:59:44;13.30;;;7.80;;
53269;SDS011;39159;45.634;9.420;2022-12-07T02:02:14;11.75;;;7.45;;
53269;SDS011;39159;45.634;9.420;2022-12-07T02:04:45;13.77;;;9.35;;
53269;SDS011;39159;45.634;9.420;2022-12-07T02:07:11;12.27;;;8.35;;
53269;SDS011;39159;45.634;9.420;2022-12-07T02:09:37;17.02;;;9.38;;
53269;SDS011;39159;45.634;9.420;2022-12-07T02:12:02;15.02;;;9.20;;
53269;SDS011;39159;45.634;9.420;2022-12-07T02:14:29;14.30;;;8.32;;
53269;SDS011;39159;45.634;9.420;2022-12-07T02:22:58;14.88;;;9.48;;
53269;SDS011;39159;45.634;9.420;2022-12-07T02:31:32;11.95;;;7.78;;
53269;SDS011;39159;45.634;9.420;2022-12-07T02:34:02;13.38;;;8.10;;
53269;SDS011;39159;45.634;9.420;2022-12-07T02:36:46;13.75;;;7.80;;
53269;SDS011;39159;45.634;9.420;2022-12-07T02:39:22;14.68;;;8.35;;
53269;SDS011;39159;45.634;9.420;2022-12-07T02:42:00;14.73;;;8.15;;
53269;SDS011;39159;45.634;9.420;2022-12-07T02:44:31;11.98;;;7.78;;
53269;SDS011;39159;45.634;9.420;2022-12-07T02:46:59;13.43;;;8.80;;
53269;SDS011;39159;45.634;9.420;2022-12-07T02:49:29;14.40;;;8.43;;
53269;SDS011;39159;45.634;9.420;2022-12-07T02:51:55;15.32;;;8.25;;
53269;SDS011;39159;45.634;9.420;2022-12-07T02:54:21;11.23;;;7.18;;
53269;SDS011;39159;45.634;9.420;2022-12-07T03:02:13;13.10;;;8.02;;
53269;SDS011;39159;45.634;9.420;2022-12-07T03:13:06;13.18;;;7.35;;
53269;SDS011;39159;45.634;9.420;2022-12-07T03:18:09;15.27;;;9.00;;
53269;SDS011;39159;45.634;9.420;2022-12-07T03:20:37;14.40;;;7.40;;
53269;SDS011;39159;45.634;9.420;2022-12-07T03:23:06;14.38;;;7.53;;
53269;SDS011;39159;45.634;9.420;2022-12-07T03:25:34;11.35;;;7.07;;
53269;SDS011;39159;45.634;9.420;2022-12-07T03:28:05;12.85;;;7.35;;
53269;SDS011;39159;45.634;9.420;2022-12-07T03:33:38;11.45;;;7.35;;
53269;SDS011;39159;45.634;9.420;2022-12-07T03:36:14;10.73;;;6.43;;
53269;SDS011;39159;45.634;9.420;2022-12-07T03:38:48;12.70;;;6.78;;
53269;SDS011;39159;45.634;9.420;2022-12-07T03:41:20;10.52;;;6.68;;
53269;SDS011;39159;45.634;9.420;2022-12-07T03:43:49;12.45;;;6.97;;
53269;SDS011;39159;45.634;9.420;2022-12-07T03:54:37;12.13;;;7.80;;
53269;SDS011;39159;45.634;9.420;2022-12-07T03:57:09;14.63;;;7.80;;
53269;SDS011;39159;45.634;9.420;2022-12-07T03:59:37;15.45;;;8.20;;
53269;SDS011;39159;45.634;9.420;2022-12-07T04:02:05;12.18;;;8.15;;
53269;SDS011;39159;45.634;9.420;2022-12-07T04:04:32;14.02;;;7.80;;
53269;SDS011;39159;45.634;9.420;2022-12-07T04:06:59;12.98;;;7.55;;
53269;SDS011;39159;45.634;9.420;2022-12-07T04:09:24;12.30;;;7.32;;
53269;SDS011;39159;45.634;9.420;2022-12-07T04:11:50;14.07;;;7.45;;
53269;SDS011;39159;45.634;9.420;2022-12-07T04:14:16;15.18;;;7.97;;
53269;SDS011;39159;45.634;9.420;2022-12-07T04:16:45;11.15;;;6.93;;
53269;SDS011;39159;45.634;9.420;2022-12-07T04:21:25;12.38;;;7.45;;
53269;SDS011;39159;45.634;9.420;2022-12-07T04:23:51;13.63;;;7.47;;
53269;SDS011;39159;45.634;9.420;2022-12-07T04:26:16;12.90;;;7.32;;
53269;SDS011;39159;45.634;9.420;2022-12-07T04:28:41;12.10;;;6.55;;
53269;SDS011;39159;45.634;9.420;2022-12-07T04:31:07;12.13;;;7.50;;
53269;SDS011;39159;45.634;9.420;2022-12-07T04:33:32;13.02;;;6.70;;
53269;SDS011;39159;45.634;9.420;2022-12-07T04:35:58;11.77;;;6.78;;
53269;SDS011;39159;45.634;9.420;2022-12-07T04:38:23;9.50;;;6.53;;
53269;SDS011;39159;45.634;9.420;2022-12-07T04:40:49;10.88;;;6.95;;
53269;SDS011;39159;45.634;9.420;2022-12-07T04:43:14;9.65;;;6.35;;
53269;SDS011;39159;45.634;9.420;2022-12-07T04:45:40;8.93;;;5.93;;
53269;SDS011;39159;45.634;9.420;2022-12-07T04:50:40;9.45;;;6.40;;
53269;SDS011;39159;45.634;9.420;2022-12-07T04:53:05;9.75;;;6.40;;
53269;SDS011;39159;45.634;9.420;2022-12-07T04:55:31;12.20;;;6.70;;
53269;SDS011;39159;45.634;9.420;2022-12-07T04:57:56;8.70;;;6.13;;
53269;SDS011;39159;45.634;9.420;2022-12-07T05:00:22;10.23;;;6.68;;
53269;SDS011;39159;45.634;9.420;2022-12-07T05:02:47;10.07;;;6.38;;
53269;SDS011;39159;45.634;9.420;2022-12-07T05:05:13;8.15;;;5.90;;
53269;SDS011;39159;45.634;9.420;2022-12-07T05:07:38;10.63;;;6.20;;
53269;SDS011;39159;45.634;9.420;2022-12-07T05:10:04;9.88;;;6.50;;
53269;SDS011;39159;45.634;9.420;2022-12-07T05:12:30;9.93;;;6.32;;
53269;SDS011;39159;45.634;9.420;2022-12-07T05:14:56;9.43;;;5.93;;
53269;SDS011;39159;45.634;9.420;2022-12-07T05:17:21;8.77;;;6.03;;
53269;SDS011;39159;45.634;9.420;2022-12-07T05:19:47;10.20;;;6.75;;
53269;SDS011;39159;45.634;9.420;2022-12-07T05:22:12;8.55;;;5.85;;
53269;SDS011;39159;45.634;9.420;2022-12-07T05:24:38;12.70;;;6.05;;
53269;SDS011;39159;45.634;9.420;2022-12-07T05:27:03;9.80;;;6.30;;
53269;SDS011;39159;45.634;9.420;2022-12-07T05:29:29;8.98;;;5.25;;
53269;SDS011;39159;45.634;9.420;2022-12-07T05:31:54;8.32;;;5.53;;
53269;SDS011;39159;45.634;9.420;2022-12-07T05:34:20;8.88;;;6.07;;
53269;SDS011;39159;45.634;9.420;2022-12-07T05:36:45;8.57;;;5.65;;
53269;SDS011;39159;45.634;9.420;2022-12-07T05:39:11;8.43;;;5.15;;
53269;SDS011;39159;45.634;9.420;2022-12-07T05:41:36;9.40;;;6.05;;
53269;SDS011;39159;45.634;9.420;2022-12-07T05:44:20;8.52;;;5.50;;
53269;SDS011;39159;45.634;9.420;2022-12-07T05:46:46;11.93;;;6.18;;
53269;SDS011;39159;45.634;9.420;2022-12-07T05:49:12;9.38;;;6.30;;
53269;SDS011;39159;45.634;9.420;2022-12-07T05:51:37;8.88;;;5.25;;
53269;SDS011;39159;45.634;9.420;2022-12-07T05:54:03;10.32;;;5.82;;
53269;SDS011;39159;45.634;9.420;2022-12-07T05:56:28;7.75;;;5.57;;
53269;SDS011;39159;45.634;9.420;2022-12-07T05:58:54;10.75;;;5.85;;
53269;SDS011;39159;45.634;9.420;2022-12-07T06:01:38;9.63;;;5.60;;
53269;SDS011;39159;45.634;9.420;2022-12-07T06:04:04;8.50;;;5.47;;
53269;SDS011;39159;45.634;9.420;2022-12-07T06:06:29;10.07;;;5.88;;
53269;SDS011;39159;45.634;9.420;2022-12-07T06:08:55;9.93;;;5.40;;
53269;SDS011;39159;45.634;9.420;2022-12-07T06:11:20;10.27;;;5.30;;
53269;SDS011;39159;45.634;9.420;2022-12-07T06:14:04;11.18;;;5.82;;
53269;SDS011;39159;45.634;9.420;2022-12-07T06:16:30;9.35;;;5.70;;
53269;SDS011;39159;45.634;9.420;2022-12-07T06:18:55;8.75;;;5.60;;
53269;SDS011;39159;45.634;9.420;2022-12-07T06:21:21;10.95;;;6.00;;
53269;SDS011;39159;45.634;9.420;2022-12-07T06:23:46;10.40;;;6.63;;
53269;SDS011;39159;45.634;9.420;2022-12-07T06:26:13;13.07;;;7.63;;
53269;SDS011;39159;45.634;9.420;2022-12-07T06:28:38;11.25;;;6.82;;
53269;SDS011;39159;45.634;9.420;2022-12-07T06:31:05;10.82;;;6.55;;
53269;SDS011;39159;45.634;9.420;2022-12-07T06:33:31;11.70;;;7.60;;
53269;SDS011;39159;45.634;9.420;2022-12-07T06:35:56;12.32;;;7.18;;
53269;SDS011;39159;45.634;9.420;2022-12-07T06:38:22;12.23;;;7.88;;
53269;SDS011;39159;45.634;9.420;2022-12-07T06:40:47;13.10;;;7.57;;
53269;SDS011;39159;45.634;9.420;2022-12-07T06:43:13;14.13;;;8.25;;
53269;SDS011;39159;45.634;9.420;2022-12-07T06:45:39;13.25;;;7.78;;
53269;SDS011;39159;45.634;9.420;2022-12-07T06:48:06;10.20;;;7.18;;
53269;SDS011;39159;45.634;9.420;2022-12-07T06:50:31;11.23;;;7.25;;
53269;SDS011;39159;45.634;9.420;2022-12-07T06:52:57;12.48;;;7.25;;
53269;SDS011;39159;45.634;9.420;2022-12-07T06:55:22;14.68;;;7.60;;
53269;SDS011;39159;45.634;9.420;2022-12-07T06:57:47;17.15;;;8.80;;
53269;SDS011;39159;45.634;9.420;2022-12-07T07:00:13;17.67;;;8.40;;
53269;SDS011;39159;45.634;9.420;2022-12-07T07:02:39;13.60;;;8.45;;
53269;SDS011;39159;45.634;9.420;2022-12-07T07:05:05;13.65;;;8.75;;
53269;SDS011;39159;45.634;9.420;2022-12-07T07:07:30;12.23;;;7.68;;
53269;SDS011;39159;45.634;9.420;2022-12-07T07:09:56;10.73;;;6.97;;
53269;SDS011;39159;45.634;9.420;2022-12-07T07:12:21;13.18;;;7.28;;
53269;SDS011;39159;45.634;9.420;2022-12-07T07:14:47;12.38;;;7.07;;
53269;SDS011;39159;45.634;9.420;2022-12-07T07:17:12;8.80;;;6.45;;
53269;SDS011;39159;45.634;9.420;2022-12-07T07:19:38;9.10;;;6.38;;
53269;SDS011;39159;45.634;9.420;2022-12-07T07:22:03;9.02;;;6.03;;
53269;SDS011;39159;45.634;9.420;2022-12-07T07:24:29;9.48;;;6.30;;
53269;SDS011;39159;45.634;9.420;2022-12-07T07:26:55;9.02;;;6.30;;
53269;SDS011;39159;45.634;9.420;2022-12-07T07:29:20;9.65;;;6.07;;
53269;SDS011;39159;45.634;9.420;2022-12-07T07:31:46;9.68;;;6.07;;
53269;SDS011;39159;45.634;9.420;2022-12-07T07:34:11;9.63;;;6.10;;
53269;SDS011;39159;45.634;9.420;2022-12-07T07:36:37;12.35;;;7.70;;
53269;SDS011;39159;45.634;9.420;2022-12-07T07:39:02;15.45;;;8.85;;
53269;SDS011;39159;45.634;9.420;2022-12-07T07:41:28;13.98;;;8.73;;
53269;SDS011;39159;45.634;9.420;2022-12-07T07:43:53;11.35;;;7.53;;
53269;SDS011;39159;45.634;9.420;2022-12-07T07:46:19;14.32;;;7.43;;
53269;SDS011;39159;45.634;9.420;2022-12-07T07:48:44;12.98;;;8.45;;
53269;SDS011;39159;45.634;9.420;2022-12-07T07:51:10;13.27;;;7.80;;
53269;SDS011;39159;45.634;9.420;2022-12-07T07:53:35;14.90;;;7.50;;
53269;SDS011;39159;45.634;9.420;2022-12-07T07:56:01;13.98;;;6.95;;
53269;SDS011;39159;45.634;9.420;2022-12-07T07:58:27;10.23;;;6.32;;
53269;SDS011;39159;45.634;9.420;2022-12-07T08:00:52;11.15;;;6.78;;
53269;SDS011;39159;45.634;9.420;2022-12-07T08:03:18;11.95;;;7.75;;
53269;SDS011;39159;45.634;9.420;2022-12-07T08:05:44;14.25;;;7.07;;
53269;SDS011;39159;45.634;9.420;2022-12-07T08:08:09;14.43;;;7.22;;
53269;SDS011;39159;45.634;9.420;2022-12-07T08:10:35;12.15;;;8.15;;
53269;SDS011;39159;45.634;9.420;2022-12-07T08:13:02;12.27;;;6.68;;
53269;SDS011;39159;45.634;9.420;2022-12-07T08:15:37;12.48;;;7.68;;
53269;SDS011;39159;45.634;9.420;2022-12-07T08:18:04;17.30;;;10.05;;
53269;SDS011;39159;45.634;9.420;2022-12-07T08:20:30;32.40;;;14.30;;
53269;SDS011;39159;45.634;9.420;2022-12-07T08:22:57;18.90;;;10.90;;
53269;SDS011;39159;45.634;9.420;2022-12-07T08:25:23;16.65;;;10.07;;
53269;SDS011;39159;45.634;9.420;2022-12-07T08:27:49;19.23;;;9.73;;
53269;SDS011;39159;45.634;9.420;2022-12-07T08:30:15;13.60;;;8.82;;
53269;SDS011;39159;45.634;9.420;2022-12-07T08:32:40;13.60;;;9.30;;
53269;SDS011;39159;45.634;9.420;2022-12-07T08:35:06;14.05;;;8.48;;
53269;SDS011;39159;45.634;9.420;2022-12-07T08:37:33;12.15;;;8.35;;
53269;SDS011;39159;45.634;9.420;2022-12-07T08:39:58;11.07;;;8.63;;
53269;SDS011;39159;45.634;9.420;2022-12-07T08:42:24;12.32;;;8.60;;
53269;SDS011;39159;45.634;9.420;2022-12-07T08:44:54;13.35;;;8.93;;
53269;SDS011;39159;45.634;9.420;2022-12-07T08:47:20;12.15;;;7.40;;
53269;SDS011;39159;45.634;9.420;2022-12-07T08:49:46;11.02;;;8.13;;
53269;SDS011;39159;45.634;9.420;2022-12-07T08:52:15;12.27;;;7.82;;
53269;SDS011;39159;45.634;9.420;2022-12-07T08:54:41;9.63;;;7.05;;
53269;SDS011;39159;45.634;9.420;2022-12-07T08:57:07;12.95;;;7.72;;
53269;SDS011;39159;45.634;9.420;2022-12-07T08:59:35;10.57;;;7.82;;
53269;SDS011;39159;45.634;9.420;2022-12-07T09:02:02;10.63;;;7.18;;
53269;SDS011;39159;45.634;9.420;2022-12-07T09:04:28;12.52;;;7.95;;
53269;SDS011;39159;45.634;9.420;2022-12-07T09:06:54;10.13;;;6.82;;
53269;SDS011;39159;45.634;9.420;2022-12-07T09:09:20;9.73;;;6.68;;
53269;SDS011;39159;45.634;9.420;2022-12-07T09:11:46;9.18;;;6.82;;
53269;SDS011;39159;45.634;9.420;2022-12-07T09:14:11;10.82;;;7.72;;
53269;SDS011;39159;45.634;9.420;2022-12-07T09:16:37;9.32;;;6.55;;
53269;SDS011;39159;45.634;9.420;2022-12-07T09:19:03;13.10;;;8.02;;
53269;SDS011;39159;45.634;9.420;2022-12-07T09:21:29;11.52;;;7.95;;
53269;SDS011;39159;45.634;9.420;2022-12-07T09:23:54;11.45;;;7.63;;
53269;SDS011;39159;45.634;9.420;2022-12-07T09:26:19;12.48;;;7.90;;
53269;SDS011;39159;45.634;9.420;2022-12-07T09:28:45;11.50;;;8.55;;
53269;SDS011;39159;45.634;9.420;2022-12-07T09:31:10;10.18;;;7.43;;
53269;SDS011;39159;45.634;9.420;2022-12-07T09:33:36;11.10;;;7.65;;
53269;SDS011;39159;45.634;9.420;2022-12-07T09:36:02;11.38;;;7.88;;
53269;SDS011;39159;45.634;9.420;2022-12-07T09:38:29;13.50;;;8.52;;
53269;SDS011;39159;45.634;9.420;2022-12-07T09:40:55;11.80;;;7.55;;
53269;SDS011;39159;45.634;9.420;2022-12-07T09:43:21;13.63;;;8.40;;
53269;SDS011;39159;45.634;9.420;2022-12-07T09:45:50;10.57;;;7.85;;
53269;SDS011;39159;45.634;9.420;2022-12-07T09:48:22;13.90;;;8.52;;
53269;SDS011;39159;45.634;9.420;2022-12-07T09:51:12;14.52;;;9.00;;
53269;SDS011;39159;45.634;9.420;2022-12-07T09:53:44;13.07;;;9.30;;
53269;SDS011;39159;45.634;9.420;2022-12-07T09:56:13;13.73;;;8.13;;
53269;SDS011;39159;45.634;9.420;2022-12-07T09:58:41;15.02;;;8.10;;
53269;SDS011;39159;45.634;9.420;2022-12-07T10:03:33;12.52;;;8.43;;
53269;SDS011;39159;45.634;9.420;2022-12-07T10:06:00;13.60;;;9.48;;
53269;SDS011;39159;45.634;9.420;2022-12-07T10:08:26;17.15;;;9.48;;
53269;SDS011;39159;45.634;9.420;2022-12-07T10:10:53;14.90;;;9.50;;
53269;SDS011;39159;45.634;9.420;2022-12-07T10:13:33;13.98;;;8.77;;
53269;SDS011;39159;45.634;9.420;2022-12-07T10:16:00;18.15;;;11.48;;
53269;SDS011;39159;45.634;9.420;2022-12-07T10:18:39;20.50;;;12.55;;
53269;SDS011;39159;45.634;9.420;2022-12-07T10:21:16;22.27;;;13.68;;
53269;SDS011;39159;45.634;9.420;2022-12-07T10:24:31;18.48;;;11.80;;
53269;SDS011;39159;45.634;9.420;2022-12-07T10:29:17;31.67;;;15.57;;
53269;SDS011;39159;45.634;9.420;2022-12-07T10:31:46;27.02;;;13.95;;
53269;SDS011;39159;45.634;9.420;2022-12-07T10:34:33;18.30;;;11.38;;
53269;SDS011;39159;45.634;9.420;2022-12-07T10:39:45;21.33;;;13.98;;
53269;SDS011;39159;45.634;9.420;2022-12-07T10:42:28;20.77;;;13.60;;
53269;SDS011;39159;45.634;9.420;2022-12-07T10:45:15;21.38;;;13.45;;
53269;SDS011;39159;45.634;9.420;2022-12-07T10:55:21;19.60;;;11.88;;
53269;SDS011;39159;45.634;9.420;2022-12-07T11:00:25;21.07;;;13.30;;
53269;SDS011;39159;45.634;9.420;2022-12-07T11:08:37;22.73;;;16.67;;
53269;SDS011;39159;45.634;9.420;2022-12-07T11:11:19;26.67;;;17.63;;
53269;SDS011;39159;45.634;9.420;2022-12-07T11:19:25;31.75;;;20.52;;
53269;SDS011;39159;45.634;9.420;2022-12-07T11:30:52;32.80;;;20.20;;
53269;SDS011;39159;45.634;9.420;2022-12-07T11:33:33;35.30;;;25.05;;
53269;SDS011;39159;45.634;9.420;2022-12-07T11:38:52;33.90;;;21.90;;
53269;SDS011;39159;45.634;9.420;2022-12-07T11:41:28;36.03;;;24.15;;
53269;SDS011;39159;45.634;9.420;2022-12-07T11:44:01;33.38;;;22.73;;
53269;SDS011;39159;45.634;9.420;2022-12-07T11:47:07;35.58;;;24.38;;
53269;SDS011;39159;45.634;9.420;2022-12-07T11:49:47;34.20;;;24.83;;
53269;SDS011;39159;45.634;9.420;2022-12-07T11:55:43;33.58;;;23.17;;
53269;SDS011;39159;45.634;9.420;2022-12-07T12:01:16;37.95;;;25.40;;
53269;SDS011;39159;45.634;9.420;2022-12-07T12:03:50;35.30;;;25.45;;
53269;SDS011;39159;45.634;9.420;2022-12-07T12:06:23;42.55;;;27.55;;
53269;SDS011;39159;45.634;9.420;2022-12-07T12:08:50;36.70;;;24.48;;
53269;SDS011;39159;45.634;9.420;2022-12-07T12:19:57;37.38;;;25.63;;
53269;SDS011;39159;45.634;9.420;2022-12-07T12:22:45;38.17;;;23.08;;
53269;SDS011;39159;45.634;9.420;2022-12-07T12:28:15;37.17;;;26.83;;
53269;SDS011;39159;45.634;9.420;2022-12-07T12:31:16;39.58;;;27.50;;
53269;SDS011;39159;45.634;9.420;2022-12-07T12:33:54;44.10;;;27.40;;
53269;SDS011;39159;45.634;9.420;2022-12-07T12:51:48;41.60;;;28.52;;
53269;SDS011;39159;45.634;9.420;2022-12-07T12:54:59;41.88;;;28.70;;
53269;SDS011;39159;45.634;9.420;2022-12-07T12:57:32;47.63;;;28.92;;
53269;SDS011;39159;45.634;9.420;2022-12-07T12:59:58;42.22;;;28.83;;
53269;SDS011;39159;45.634;9.420;2022-12-07T13:02:29;39.45;;;29.45;;
53269;SDS011;39159;45.634;9.420;2022-12-07T13:15:46;47.35;;;31.23;;
53269;SDS011;39159;45.634;9.420;2022-12-07T13:24:07;46.20;;;32.03;;
53269;SDS011;39159;45.634;9.420;2022-12-07T13:28:51;45.97;;;32.38;;
53269;SDS011;39159;45.634;9.420;2022-12-07T13:34:29;50.17;;;31.92;;
53269;SDS011;39159;45.634;9.420;2022-12-07T13:36:55;48.53;;;31.88;;
53269;SDS011;39159;45.634;9.420;2022-12-07T13:39:22;49.17;;;32.25;;
53269;SDS011;39159;45.634;9.420;2022-12-07T13:41:50;46.80;;;31.80;;
53269;SDS011;39159;45.634;9.420;2022-12-07T13:44:18;44.72;;;31.17;;
53269;SDS011;39159;45.634;9.420;2022-12-07T13:49:31;49.45;;;31.98;;
53269;SDS011;39159;45.634;9.420;2022-12-07T13:52:14;55.00;;;32.80;;
53269;SDS011;39159;45.634;9.420;2022-12-07T13:54:55;49.45;;;31.80;;
53269;SDS011;39159;45.634;9.420;2022-12-07T13:57:27;49.75;;;32.58;;
53269;SDS011;39159;45.634;9.420;2022-12-07T13:59:55;47.30;;;33.20;;
53269;SDS011;39159;45.634;9.420;2022-12-07T14:04:50;51.58;;;32.42;;
53269;SDS011;39159;45.634;9.420;2022-12-07T14:07:27;52.25;;;35.65;;
53269;SDS011;39159;45.634;9.420;2022-12-07T14:09:55;57.67;;;35.80;;
53269;SDS011;39159;45.634;9.420;2022-12-07T14:12:25;54.28;;;35.17;;
53269;SDS011;39159;45.634;9.420;2022-12-07T14:14:51;59.38;;;34.95;;
53269;SDS011;39159;45.634;9.420;2022-12-07T14:17:19;57.35;;;35.08;;
53269;SDS011;39159;45.634;9.420;2022-12-07T14:19:51;60.05;;;35.97;;
53269;SDS011;39159;45.634;9.420;2022-12-07T14:24:49;58.45;;;37.50;;
53269;SDS011;39159;45.634;9.420;2022-12-07T14:27:22;60.40;;;38.40;;
53269;SDS011;39159;45.634;9.420;2022-12-07T14:29:50;63.03;;;37.30;;
53269;SDS011;39159;45.634;9.420;2022-12-07T14:37:23;64.20;;;38.95;;
53269;SDS011;39159;45.634;9.420;2022-12-07T14:39:51;66.53;;;38.03;;
53269;SDS011;39159;45.634;9.420;2022-12-07T14:42:17;66.00;;;39.33;;
53269;SDS011;39159;45.634;9.420;2022-12-07T14:44:46;62.28;;;37.30;;
53269;SDS011;39159;45.634;9.420;2022-12-07T14:47:11;62.83;;;38.13;;
53269;SDS011;39159;45.634;9.420;2022-12-07T14:49:36;65.72;;;38.55;;
53269;SDS011;39159;45.634;9.420;2022-12-07T14:52:02;67.95;;;39.40;;
53269;SDS011;39159;45.634;9.420;2022-12-07T14:54:32;64.70;;;39.33;;
53269;SDS011;39159;45.634;9.420;2022-12-07T14:56:58;67.85;;;38.42;;
53269;SDS011;39159;45.634;9.420;2022-12-07T14:59:23;67.93;;;39.67;;
53269;SDS011;39159;45.634;9.420;2022-12-07T15:01:49;62.35;;;37.53;;
53269;SDS011;39159;45.634;9.420;2022-12-07T15:04:15;68.45;;;39.00;;
53269;SDS011;39159;45.634;9.420;2022-12-07T15:06:41;70.28;;;39.30;;
53269;SDS011;39159;45.634;9.420;2022-12-07T15:09:10;64.72;;;38.08;;
53269;SDS011;39159;45.634;9.420;2022-12-07T15:11:36;65.55;;;37.85;;
53269;SDS011;39159;45.634;9.420;2022-12-07T15:14:01;75.57;;;40.00;;
53269;SDS011;39159;45.634;9.420;2022-12-07T15:16:33;63.42;;;38.08;;
53269;SDS011;39159;45.634;9.420;2022-12-07T15:18:59;63.45;;;37.42;;
53269;SDS011;39159;45.634;9.420;2022-12-07T15:21:25;63.25;;;38.03;;
53269;SDS011;39159;45.634;9.420;2022-12-07T15:23:51;61.20;;;37.65;;
53269;SDS011;39159;45.634;9.420;2022-12-07T15:26:16;59.47;;;35.97;;
53269;SDS011;39159;45.634;9.420;2022-12-07T15:28:42;55.00;;;34.97;;
53269;SDS011;39159;45.634;9.420;2022-12-07T15:31:11;63.33;;;37.25;;
53269;SDS011;39159;45.634;9.420;2022-12-07T15:33:38;59.58;;;35.03;;
53269;SDS011;39159;45.634;9.420;2022-12-07T15:36:03;62.10;;;36.63;;
53269;SDS011;39159;45.634;9.420;2022-12-07T15:38:29;59.83;;;36.55;;
53269;SDS011;39159;45.634;9.420;2022-12-07T15:40:55;78.85;;;38.42;;
53269;SDS011;39159;45.634;9.420;2022-12-07T15:43:21;75.47;;;37.38;;
53269;SDS011;39159;45.634;9.420;2022-12-07T15:46:05;61.60;;;36.05;;
53269;SDS011;39159;45.634;9.420;2022-12-07T15:48:30;62.65;;;36.35;;
53269;SDS011;39159;45.634;9.420;2022-12-07T15:51:08;77.10;;;37.80;;
53269;SDS011;39159;45.634;9.420;2022-12-07T15:53:34;73.38;;;39.10;;
53269;SDS011;39159;45.634;9.420;2022-12-07T15:56:00;69.28;;;38.78;;
53269;SDS011;39159;45.634;9.420;2022-12-07T15:58:26;86.65;;;42.00;;
53269;SDS011;39159;45.634;9.420;2022-12-07T16:00:52;71.25;;;38.38;;
53269;SDS011;39159;45.634;9.420;2022-12-07T16:03:17;71.95;;;40.60;;
53269;SDS011;39159;45.634;9.420;2022-12-07T16:05:48;69.40;;;37.42;;
53269;SDS011;39159;45.634;9.420;2022-12-07T16:08:14;61.78;;;37.28;;
53269;SDS011;39159;45.634;9.420;2022-12-07T16:10:40;68.82;;;39.00;;
53269;SDS011;39159;45.634;9.420;2022-12-07T16:13:08;101.40;;;41.20;;
53269;SDS011;39159;45.634;9.420;2022-12-07T16:15:37;108.65;;;40.08;;
53269;SDS011;39159;45.634;9.420;2022-12-07T16:18:06;65.82;;;36.78;;
53269;SDS011;39159;45.634;9.420;2022-12-07T16:20:31;66.22;;;37.20;;
53269;SDS011;39159;45.634;9.420;2022-12-07T16:22:57;122.95;;;42.03;;
53269;SDS011;39159;45.634;9.420;2022-12-07T16:25:23;105.38;;;40.55;;
53269;SDS011;39159;45.634;9.420;2022-12-07T16:27:48;68.03;;;38.03;;
53269;SDS011;39159;45.634;9.420;2022-12-07T16:30:14;84.70;;;39.40;;
53269;SDS011;39159;45.634;9.420;2022-12-07T16:32:41;68.45;;;38.78;;
53269;SDS011;39159;45.634;9.420;2022-12-07T16:35:07;73.82;;;37.55;;
53269;SDS011;39159;45.634;9.420;2022-12-07T16:37:33;68.22;;;36.45;;
53269;SDS011;39159;45.634;9.420;2022-12-07T16:39:58;82.18;;;38.53;;
53269;SDS011;39159;45.634;9.420;2022-12-07T16:42:24;78.03;;;38.13;;
53269;SDS011;39159;45.634;9.420;2022-12-07T16:44:49;103.85;;;41.13;;
53269;SDS011;39159;45.634;9.420;2022-12-07T16:47:14;105.53;;;42.25;;
53269;SDS011;39159;45.634;9.420;2022-12-07T16:49:40;76.30;;;41.42;;
53269;SDS011;39159;45.634;9.420;2022-12-07T16:52:05;84.03;;;43.60;;
53269;SDS011;39159;45.634;9.420;2022-12-07T16:54:31;70.70;;;41.20;;
53269;SDS011;39159;45.634;9.420;2022-12-07T16:56:58;75.85;;;40.63;;
53269;SDS011;39159;45.634;9.420;2022-12-07T16:59:23;73.15;;;40.10;;
53269;SDS011;39159;45.634;9.420;2022-12-07T17:01:49;68.03;;;39.42;;
53269;SDS011;39159;45.634;9.420;2022-12-07T17:04:14;69.32;;;38.45;;
53269;SDS011;39159;45.634;9.420;2022-12-07T17:06:40;69.82;;;39.13;;
53269;SDS011;39159;45.634;9.420;2022-12-07T17:09:05;70.95;;;38.35;;
53269;SDS011;39159;45.634;9.420;2022-12-07T17:11:34;66.10;;;36.08;;
53269;SDS011;39159;45.634;9.420;2022-12-07T17:14:00;59.53;;;35.03;;